Time;durP1;ratioP1;P1;durP2;ratioP2;P2;SDS_P1;SDS_P2;PMS_P1;PMS_P2;Temp;Humidity;BMP_temperature;BMP_pressure;BME280_temperature;BME280_humidity;BME280_pressure;Samples;Min_cycle;Max_cycle;Signal;HPM_P1;HPM_P2
2022/06/29 00:00:43;;;;;;;2.00;1.10;;;;;;;23.31;46.28;100419.59;5004085;28;20628;-65
2022/06/29 00:03:11;;;;;;;4.00;1.55;;;;;;;23.31;46.16;100427.72;5006869;28;20638;-65
2022/06/29 00:05:39;;;;;;;3.90;1.27;;;;;;;23.27;46.33;100413.00;5003530;28;20212;-65
2022/06/29 00:08:08;;;;;;;4.53;1.30;;;;;;;23.28;45.72;100409.25;5006223;28;20214;-65
2022/06/29 00:10:38;;;;;;;4.40;1.30;;;;;;;23.28;45.88;100401.13;4998225;28;20224;-66
2022/06/29 00:13:06;;;;;;;3.33;1.35;;;;;;;23.29;46.86;100401.97;5011058;28;20214;-64
2022/06/29 00:15:34;;;;;;;4.23;1.43;;;;;;;23.29;46.64;100405.50;5011655;28;20223;-65
2022/06/29 00:18:02;;;;;;;3.63;1.50;;;;;;;23.29;46.82;100400.09;5011880;28;20597;-64
2022/06/29 00:20:30;;;;;;;5.20;1.38;;;;;;;23.30;46.72;100393.63;5011123;28;20209;-65
2022/06/29 00:22:57;;;;;;;3.38;1.27;;;;;;;23.32;46.14;100401.47;5010811;28;20696;-65
2022/06/29 00:25:27;;;;;;;4.03;1.13;;;;;;;23.32;46.04;100399.59;5011595;28;20219;-65
2022/06/29 00:27:55;;;;;;;3.35;1.40;;;;;;;23.33;46.06;100401.25;5008303;28;20292;-65
2022/06/29 00:30:23;;;;;;;3.33;1.20;;;;;;;23.33;45.84;100393.13;5011274;28;20293;-65
2022/06/29 00:32:50;;;;;;;2.70;0.95;;;;;;;23.31;45.77;100394.44;5010943;28;20210;-65
2022/06/29 00:35:18;;;;;;;3.20;1.30;;;;;;;23.30;45.74;100384.69;5001186;28;20240;-65
2022/06/29 00:37:46;;;;;;;4.25;1.23;;;;;;;23.26;46.17;100382.44;4996341;28;20216;-65
2022/06/29 00:40:14;;;;;;;5.38;1.30;;;;;;;23.25;46.19;100391.59;5010915;28;20314;-65
2022/06/29 00:42:43;;;;;;;2.63;1.23;;;;;;;23.25;46.29;100386.19;5009851;28;20205;-65
2022/06/29 00:45:11;;;;;;;2.47;1.30;;;;;;;23.25;46.32;100390.78;5015920;28;20217;-65
2022/06/29 00:47:38;;;;;;;3.05;1.02;;;;;;;23.25;45.95;100393.47;5010827;28;20213;-65
2022/06/29 00:50:07;;;;;;;2.72;1.13;;;;;;;23.23;46.33;100398.28;5011181;28;20216;-65
2022/06/29 00:52:37;;;;;;;2.92;1.38;;;;;;;23.21;46.42;100386.91;5010637;28;20312;-65
2022/06/29 00:55:10;;;;;;;2.58;0.98;;;;;;;23.19;46.45;100387.13;5009186;28;20667;-65
2022/06/29 00:57:41;;;;;;;3.60;1.43;;;;;;;23.18;46.08;100384.66;5006200;28;20233;-64
2022/06/29 01:00:12;;;;;;;5.35;1.10;;;;;;;23.17;46.26;100381.13;5002962;28;20296;-64
2022/06/29 01:02:40;;;;;;;3.07;0.90;;;;;;;23.15;46.10;100379.69;5006321;28;20217;-64
2022/06/29 01:05:09;;;;;;;2.65;1.10;;;;;;;23.13;46.11;100379.91;4991955;28;20216;-64
2022/06/29 01:07:37;;;;;;;2.40;1.10;;;;;;;23.11;46.50;100389.34;5007039;28;20837;-64
2022/06/29 01:10:06;;;;;;;2.83;1.02;;;;;;;23.07;46.13;100388.16;5010784;28;20934;-64
2022/06/29 01:12:34;;;;;;;5.28;1.10;;;;;;;23.06;46.40;100381.91;5010239;28;20213;-65
2022/06/29 01:15:01;;;;;;;4.32;1.30;;;;;;;23.06;46.50;100381.09;5010401;28;20296;-65
2022/06/29 01:17:30;;;;;;;3.13;0.95;;;;;;;23.07;46.46;100388.16;4997862;28;20248;-65
2022/06/29 01:19:58;;;;;;;8.63;1.20;;;;;;;23.06;46.42;100392.72;5010690;28;20288;-66
2022/06/29 01:22:27;;;;;;;4.87;1.30;;;;;;;23.02;46.47;100380.75;5009885;28;20565;-66
2022/06/29 01:24:55;;;;;;;3.50;1.10;;;;;;;23.00;46.77;100387.44;5010192;28;20287;-66
2022/06/29 01:27:24;;;;;;;2.50;1.40;;;;;;;22.97;46.21;100383.31;5010535;28;20201;-66
2022/06/29 01:29:52;;;;;;;2.80;1.38;;;;;;;22.97;46.74;100386.00;5010746;28;20272;-66
2022/06/29 01:32:20;;;;;;;2.60;0.93;;;;;;;22.98;46.51;100384.13;5011693;28;20249;-66
2022/06/29 01:34:49;;;;;;;4.93;1.37;;;;;;;22.96;46.51;100380.81;5009774;28;20214;-64
2022/06/29 01:37:17;;;;;;;3.08;0.98;;;;;;;22.93;46.38;100378.59;5013097;28;20508;-64
2022/06/29 01:39:46;;;;;;;3.57;1.30;;;;;;;22.93;45.88;100382.13;5010668;28;20823;-65
2022/06/29 01:42:13;;;;;;;2.42;0.90;;;;;;;22.92;45.95;100374.25;5006929;28;20209;-64
2022/06/29 01:44:41;;;;;;;6.68;1.80;;;;;;;22.92;45.88;100369.66;5004560;28;20261;-64
2022/06/29 01:47:09;;;;;;;2.45;1.13;;;;;;;22.92;45.68;100363.44;5002420;28;20296;-65
2022/06/29 01:49:37;;;;;;;3.53;1.30;;;;;;;22.91;45.68;100368.00;5010724;28;20205;-64
2022/06/29 01:52:05;;;;;;;6.22;1.40;;;;;;;22.89;46.07;100370.94;5010653;28;20673;-64
2022/06/29 01:54:33;;;;;;;4.68;1.48;;;;;;;22.82;45.94;100367.50;5010344;28;20225;-64
2022/06/29 01:57:02;;;;;;;3.27;1.20;;;;;;;22.82;45.66;100364.81;5027823;28;20829;-65
2022/06/29 01:59:30;;;;;;;4.68;1.23;;;;;;;22.82;45.64;100358.59;5030035;28;20208;-65
2022/06/29 02:01:58;;;;;;;5.40;1.40;;;;;;;22.80;45.98;100350.69;5028970;28;20559;-65
2022/06/29 02:04:26;;;;;;;3.00;1.30;;;;;;;22.77;45.95;100362.00;5029938;28;20776;-65
2022/06/29 02:06:53;;;;;;;2.87;1.57;;;;;;;22.76;46.15;100360.34;5029829;28;20220;-65
2022/06/29 02:09:21;;;;;;;3.77;1.30;;;;;;;22.75;46.15;100360.56;5030155;28;20213;-65
2022/06/29 02:11:50;;;;;;;3.07;1.17;;;;;;;22.74;45.82;100356.19;5029942;28;20213;-65
2022/06/29 02:14:20;;;;;;;3.67;1.10;;;;;;;22.74;46.15;100348.94;5033531;28;20205;-65
2022/06/29 02:16:47;;;;;;;4.43;1.47;;;;;;;22.73;46.13;100347.25;5046554;28;20303;-65
2022/06/29 02:19:15;;;;;;;3.03;1.20;;;;;;;22.73;45.86;100347.25;5033659;28;20240;-66
2022/06/29 02:21:43;;;;;;;8.87;1.43;;;;;;;22.72;45.64;100348.28;5030503;28;20692;-65
2022/06/29 02:24:11;;;;;;;2.70;1.30;;;;;;;22.70;45.76;100345.00;5033249;28;20327;-65
2022/06/29 02:26:39;;;;;;;1.57;1.00;;;;;;;22.67;46.03;100340.06;5033939;28;20216;-65
2022/06/29 02:29:07;;;;;;;3.57;1.37;;;;;;;22.72;46.01;100340.19;5033840;28;20295;-65
2022/06/29 02:37:06;;;;;;;4.57;1.50;;;;;;;22.71;46.53;100343.94;5033595;28;20292;-66
2022/06/29 02:39:34;;;;;;;2.93;1.10;;;;;;;22.69;46.53;100342.53;5033271;28;20209;-66
2022/06/29 02:42:02;;;;;;;6.27;1.57;;;;;;;22.70;46.67;100338.75;5033430;28;20204;-66
2022/06/29 02:44:30;;;;;;;3.53;1.37;;;;;;;22.71;46.32;100343.94;5032961;28;20706;-65
2022/06/29 02:46:59;;;;;;;2.33;1.30;;;;;;;22.69;46.40;100337.94;5029926;28;20646;-65
2022/06/29 02:49:27;;;;;;;3.93;1.20;;;;;;;22.68;46.18;100333.59;5033185;28;20213;-65
2022/06/29 02:51:55;;;;;;;3.67;1.30;;;;;;;22.67;45.93;100339.25;5032915;28;20292;-65
2022/06/29 02:54:22;;;;;;;2.80;1.30;;;;;;;22.67;45.98;100345.47;5032144;28;20291;-66
2022/06/29 02:56:50;;;;;;;4.53;1.30;;;;;;;22.63;45.81;100344.25;5022211;28;20283;-65
2022/06/29 02:59:18;;;;;;;4.23;1.10;;;;;;;22.63;46.17;100343.44;5012890;28;20220;-65
2022/06/29 03:01:46;;;;;;;2.73;1.37;;;;;;;22.63;46.24;100336.16;5015450;28;20272;-65
2022/06/29 03:04:15;;;;;;;1.80;1.20;;;;;;;22.62;45.96;100342.63;5009149;28;20731;-64
2022/06/29 03:06:43;;;;;;;3.60;1.33;;;;;;;22.59;46.42;100343.09;5013058;28;20206;-65
2022/06/29 03:09:11;;;;;;;3.17;1.20;;;;;;;22.60;46.68;100344.75;5013130;28;20248;-64
2022/06/29 03:11:39;;;;;;;2.40;1.37;;;;;;;22.62;46.83;100342.63;5012106;28;20209;-66
2022/06/29 03:14:07;;;;;;;2.07;1.23;;;;;;;22.61;46.49;100340.97;5012630;28;20205;-66
2022/06/29 03:16:35;;;;;;;3.87;1.20;;;;;;;22.59;46.46;100343.09;5012723;28;20207;-65
2022/06/29 03:19:03;;;;;;;3.20;1.30;;;;;;;22.58;46.57;100341.44;5008350;28;20267;-65
2022/06/29 03:21:32;;;;;;;4.27;1.70;;;;;;;22.59;46.69;100344.97;5012530;28;20235;-66
2022/06/29 03:24:01;;;;;;;4.33;1.43;;;;;;;22.55;46.67;100341.88;5011755;28;20209;-65
2022/06/29 03:26:28;;;;;;;1.83;1.03;;;;;;;22.55;46.88;100341.88;5012492;28;20575;-65
2022/06/29 03:28:56;;;;;;;4.10;1.40;;;;;;;22.53;46.78;100338.59;5012463;28;20209;-66
2022/06/29 03:31:24;;;;;;;5.03;1.60;;;;;;;22.54;47.10;100340.25;5013106;28;20229;-65
2022/06/29 03:33:52;;;;;;;7.93;1.60;;;;;;;22.50;47.11;100339.06;5008946;28;20241;-65
2022/06/29 03:36:20;;;;;;;3.57;1.50;;;;;;;22.50;46.96;100339.88;5006169;28;20217;-65
2022/06/29 03:38:49;;;;;;;3.60;1.37;;;;;;;22.51;47.09;100346.13;5012783;28;20300;-65
2022/06/29 03:41:17;;;;;;;4.77;1.43;;;;;;;22.48;47.24;100335.75;5012629;28;20212;-66
2022/06/29 03:43:44;;;;;;;3.30;1.87;;;;;;;22.48;47.05;100335.75;5011757;28;20661;-65
2022/06/29 03:46:12;;;;;;;4.10;1.37;;;;;;;22.49;46.71;100332.84;5011894;28;20866;-65
2022/06/29 03:48:40;;;;;;;2.30;1.40;;;;;;;22.49;46.90;100343.63;5011507;28;20214;-65
2022/06/29 03:51:08;;;;;;;3.60;1.30;;;;;;;22.47;47.05;100343.03;5016373;28;20208;-66
2022/06/29 03:53:36;;;;;;;2.87;1.27;;;;;;;22.45;47.10;100337.03;5015439;28;20202;-65
2022/06/29 03:56:05;;;;;;;2.77;1.20;;;;;;;22.47;47.24;100339.50;5014232;28;20232;-66
2022/06/29 03:58:33;;;;;;;1.70;1.10;;;;;;;22.48;47.48;100330.34;5033060;28;20236;-65
2022/06/29 04:01:07;;;;;;;4.30;1.60;;;;;;;22.49;47.39;100337.41;5028577;28;20219;-65
2022/06/29 04:03:34;;;;;;;3.00;1.60;;;;;;;22.46;47.42;100337.84;5030998;28;20201;-66
2022/06/29 04:06:02;;;;;;;4.60;1.60;;;;;;;22.43;47.29;100330.19;5027200;28;20607;-65
2022/06/29 04:08:30;;;;;;;3.13;1.40;;;;;;;22.43;47.67;100330.19;5031977;28;20232;-64
2022/06/29 04:10:58;;;;;;;6.20;1.90;;;;;;;22.43;47.63;100324.78;5031607;28;20296;-66
2022/06/29 04:13:27;;;;;;;2.90;1.47;;;;;;;22.43;47.88;100327.50;5030512;28;20222;-65
2022/06/29 04:15:55;;;;;;;3.60;1.60;;;;;;;22.40;48.20;100325.28;5036983;28;20200;-64
2022/06/29 04:18:22;;;;;;;4.87;1.73;;;;;;;22.41;47.83;100319.66;5031245;28;20212;-65
2022/06/29 04:21:08;;;;;;;3.83;1.90;;;;;;;22.43;47.87;100322.91;5031362;28;20311;-66
2022/06/29 04:23:36;;;;;;;3.13;1.50;;;;;;;22.40;47.88;100328.81;5022743;28;20222;-65
2022/06/29 04:26:04;;;;;;;2.77;1.53;;;;;;;22.42;47.71;100325.88;5023490;28;20717;-65
2022/06/29 04:28:33;;;;;;;3.83;1.70;;;;;;;22.46;48.27;100327.06;5026690;28;20295;-65
2022/06/29 04:31:02;;;;;;;4.17;1.40;;;;;;;22.43;48.11;100322.91;5031136;28;20316;-64
2022/06/29 04:33:30;;;;;;;3.80;1.50;;;;;;;22.44;48.12;100310.25;5027824;28;20500;-66
2022/06/29 04:35:57;;;;;;;2.93;1.30;;;;;;;22.41;47.99;100310.72;5030760;28;20251;-64
2022/06/29 04:38:25;;;;;;;3.10;1.50;;;;;;;22.40;48.20;100318.00;5031142;28;20209;-66
2022/06/29 04:40:53;;;;;;;5.40;1.47;;;;;;;22.41;48.83;100311.53;5029361;28;20228;-66
2022/06/29 04:43:21;;;;;;;4.17;1.60;;;;;;;22.40;47.94;100323.41;5027313;28;20209;-65
2022/06/29 04:48:35;;;;;;;4.10;1.43;;;;;;;22.39;48.89;100316.34;5030844;28;20236;-65
2022/06/29 04:51:03;;;;;;;6.77;1.70;;;;;;;22.40;48.51;100320.69;5026830;28;20256;-64
2022/06/29 04:53:31;;;;;;;2.83;1.43;;;;;;;22.41;48.51;100325.06;5030116;28;20201;-64
2022/06/29 04:55:59;;;;;;;6.30;1.77;;;;;;;22.37;48.52;100314.91;5030752;28;20606;-65
2022/06/29 04:58:27;;;;;;;4.80;1.83;;;;;;;22.38;48.44;100313.88;5030795;28;20311;-65
2022/06/29 05:00:56;;;;;;;6.23;1.70;;;;;;;22.38;49.02;100314.69;5030925;28;20209;-65
2022/06/29 05:03:25;;;;;;;3.40;1.63;;;;;;;22.38;49.14;100314.69;5030403;28;20299;-65
2022/06/29 05:05:53;;;;;;;2.77;1.57;;;;;;;22.38;49.38;100311.16;5030642;28;20276;-66
2022/06/29 05:08:21;;;;;;;3.07;1.60;;;;;;;22.40;49.40;100309.06;5030376;28;20227;-65
2022/06/29 05:10:49;;;;;;;6.00;2.10;;;;;;;22.43;49.55;100311.28;5031052;28;20258;-65
2022/06/29 05:13:16;;;;;;;3.27;1.63;;;;;;;22.45;49.29;100320.81;5026753;28;20645;-65
2022/06/29 05:15:44;;;;;;;6.00;1.73;;;;;;;22.48;48.82;100314.16;5030707;28;20272;-65
2022/06/29 05:18:13;;;;;;;3.00;1.53;;;;;;;22.48;48.90;100308.75;5030463;28;20777;-66
2022/06/29 05:20:52;;;;;;;3.27;1.90;;;;;;;22.48;49.48;100308.75;5029082;28;20216;-64
2022/06/29 05:23:19;;;;;;;4.87;2.70;;;;;;;22.53;49.89;100316.97;5030421;28;20208;-65
2022/06/29 05:25:47;;;;;;;5.13;2.20;;;;;;;22.52;50.45;100316.16;5030595;28;20643;-65
2022/06/29 05:28:15;;;;;;;4.73;2.23;;;;;;;22.55;50.44;100309.47;5030491;28;20420;-66
2022/06/29 05:30:43;;;;;;;3.30;1.77;;;;;;;22.55;49.95;100309.47;5029905;28;20232;-66
2022/06/29 05:33:11;;;;;;;3.73;1.70;;;;;;;22.54;49.76;100307.81;5025002;28;20241;-65
2022/06/29 05:35:40;;;;;;;3.30;1.80;;;;;;;22.56;49.65;100313.81;5019920;28;20198;-65
2022/06/29 05:38:08;;;;;;;6.13;2.70;;;;;;;22.56;50.90;100316.53;5026490;28;20230;-65
2022/06/29 05:40:36;;;;;;;2.90;1.90;;;;;;;22.59;51.21;100320.66;5030891;28;20209;-65
2022/06/29 05:43:04;;;;;;;3.70;1.70;;;;;;;22.60;51.13;100312.31;5025846;28;20200;-65
2022/06/29 05:45:32;;;;;;;4.73;2.20;;;;;;;22.60;50.86;100316.91;5018214;28;20324;-66
2022/06/29 05:47:59;;;;;;;5.63;2.40;;;;;;;22.62;50.76;100310.19;5030841;28;20226;-66
2022/06/29 05:50:28;;;;;;;4.77;1.73;;;;;;;22.61;51.00;100313.94;5031784;28;20624;-66
2022/06/29 05:52:57;;;;;;;6.07;2.00;;;;;;;22.60;50.98;100311.50;5031678;28;20216;-65
2022/06/29 05:55:25;;;;;;;5.23;2.60;;;;;;;22.60;50.30;100306.91;5033201;28;20302;-65
2022/06/29 05:57:52;;;;;;;5.03;2.17;;;;;;;22.61;50.07;100307.72;5040856;28;20284;-65
2022/06/29 06:00:20;;;;;;;5.05;2.50;;;;;;;22.62;50.76;100315.59;5040335;28;20303;-65
2022/06/29 06:02:52;;;;;;;6.70;2.13;;;;;;;22.64;51.09;100302.69;5033570;28;20263;-67
2022/06/29 06:05:20;;;;;;;7.10;2.47;;;;;;;22.66;50.70;100314.09;5032512;28;20560;-66
2022/06/29 06:07:48;;;;;;;7.10;2.22;;;;;;;22.67;50.62;100315.75;5031263;28;20676;-66
2022/06/29 06:10:17;;;;;;;4.80;2.10;;;;;;;22.68;50.79;100317.41;5035319;28;20219;-66
2022/06/29 06:12:45;;;;;;;3.70;1.90;;;;;;;22.70;50.58;100317.97;5032646;28;20209;-65
2022/06/29 06:15:12;;;;;;;3.33;1.97;;;;;;;22.71;51.18;100311.50;5032559;28;20215;-66
2022/06/29 06:17:40;;;;;;;4.80;2.37;;;;;;;22.72;50.83;100315.84;5033429;28;20212;-66
2022/06/29 06:20:09;;;;;;;5.30;2.00;;;;;;;22.69;51.29;100313.59;5033642;28;20244;-66
2022/06/29 06:22:37;;;;;;;8.40;2.87;;;;;;;22.71;50.50;100316.09;5032611;28;20724;-65
2022/06/29 06:25:05;;;;;;;58.40;7.63;;;;;;;22.75;50.68;100314.63;5033606;28;20209;-65
2022/06/29 06:27:35;;;;;;;40.27;7.30;;;;;;;22.75;51.39;100314.63;5033513;28;20232;-65
2022/06/29 06:30:03;;;;;;;57.97;8.03;;;;;;;22.77;51.68;100317.91;5019355;28;20217;-65
2022/06/29 06:32:31;;;;;;;34.60;5.70;;;;;;;22.77;51.51;100321.44;5033002;28;20698;-66
2022/06/29 06:34:59;;;;;;;13.07;4.43;;;;;;;22.78;51.71;100316.88;5031985;28;20211;-65
2022/06/29 06:37:26;;;;;;;25.27;5.30;;;;;;;22.78;51.46;100320.34;5027747;28;20654;-66
2022/06/29 06:42:37;;;;;;;30.00;5.07;;;;;;;22.81;52.94;100327.19;4986046;28;20213;-66
2022/06/29 06:45:06;;;;;;;15.10;3.93;;;;;;;22.82;53.11;100335.06;5030585;28;20208;-65
2022/06/29 06:47:34;;;;;;;18.10;4.73;;;;;;;22.84;53.07;100335.69;5033338;28;20643;-65
2022/06/29 06:50:02;;;;;;;15.13;3.47;;;;;;;22.85;52.32;100336.50;5033201;28;20212;-65
2022/06/29 06:52:30;;;;;;;17.45;3.65;;;;;;;22.87;52.22;100335.19;5031941;28;20215;-65
2022/06/29 06:54:58;;;;;;;8.07;3.17;;;;;;;22.91;52.97;100332.03;5032794;28;20267;-65
2022/06/29 06:57:26;;;;;;;10.27;3.17;;;;;;;22.91;53.67;100342.84;5032499;28;20201;-65
2022/06/29 06:59:57;;;;;;;8.07;2.87;;;;;;;22.91;53.02;100345.56;5031846;28;20228;-65
2022/06/29 07:02:25;;;;;;;6.73;2.50;;;;;;;22.91;53.73;100340.16;5028855;28;20209;-65
2022/06/29 07:04:53;;;;;;;5.47;2.57;;;;;;;22.91;54.25;100346.38;5030379;28;20288;-66
2022/06/29 07:07:21;;;;;;;6.80;2.50;;;;;;;22.93;52.59;100352.38;5032533;28;20228;-66
2022/06/29 07:09:49;;;;;;;8.45;2.50;;;;;;;22.94;52.21;100345.94;5032794;28;20729;-66
2022/06/29 07:12:17;;;;;;;3.73;2.43;;;;;;;22.97;51.98;100341.91;5031286;28;20688;-66
2022/06/29 07:14:44;;;;;;;6.23;3.03;;;;;;;23.03;52.56;100338.31;5032429;28;20230;-66
2022/06/29 07:17:13;;;;;;;5.00;2.77;;;;;;;23.13;52.42;100342.06;5040075;28;20215;-66
2022/06/29 07:19:41;;;;;;;4.97;2.63;;;;;;;23.25;52.21;100347.50;5031971;28;20213;-66
2022/06/29 07:22:15;;;;;;;9.43;2.50;;;;;;;23.37;51.58;100344.81;5031122;28;20212;-65
2022/06/29 07:24:42;;;;;;;12.30;3.13;;;;;;;23.48;51.77;100342.09;5032529;28;20208;-65
2022/06/29 07:27:10;;;;;;;6.50;2.85;;;;;;;23.57;51.50;100329.06;5033066;28;20697;-66
2022/06/29 07:29:38;;;;;;;6.75;3.47;;;;;;;23.69;51.60;100332.56;5033096;28;20297;-66
2022/06/29 07:32:07;;;;;;;6.63;3.00;;;;;;;23.77;50.77;100339.50;5031454;28;20236;-66
2022/06/29 07:34:36;;;;;;;7.53;3.15;;;;;;;23.86;51.05;100325.38;5031531;28;20299;-66
2022/06/29 07:37:04;;;;;;;7.95;3.75;;;;;;;23.92;50.70;100331.72;5031552;28;20224;-66
2022/06/29 07:39:32;;;;;;;8.20;3.15;;;;;;;24.00;50.66;100331.34;5031917;28;20207;-66
2022/06/29 07:42:17;;;;;;;7.65;2.83;;;;;;;24.09;49.78;100329.91;5031648;28;20208;-66
2022/06/29 07:44:45;;;;;;;5.13;3.13;;;;;;;24.22;49.00;100332.38;5031737;28;20217;-66
2022/06/29 07:47:12;;;;;;;5.38;3.38;;;;;;;24.32;48.00;100331.75;5032123;28;20272;-66
2022/06/29 07:49:41;;;;;;;8.05;3.10;;;;;;;24.37;48.37;100324.53;5032158;28;20217;-66
2022/06/29 07:52:09;;;;;;;10.07;3.47;;;;;;;24.40;48.56;100322.41;5031343;28;20299;-65
2022/06/29 07:54:37;;;;;;;5.07;3.25;;;;;;;24.42;48.55;100333.84;5031975;28;20622;-65
2022/06/29 07:57:06;;;;;;;6.55;3.13;;;;;;;24.43;48.90;100321.94;5027231;28;20243;-66
2022/06/29 07:59:43;;;;;;;6.82;2.97;;;;;;;24.52;48.12;100323.19;5031471;28;20217;-66
2022/06/29 08:02:11;;;;;;;6.68;3.25;;;;;;;24.55;48.59;100314.56;5033024;28;20296;-66
2022/06/29 08:04:40;;;;;;;11.50;3.42;;;;;;;24.63;48.14;100316.88;5031251;28;20288;-67
2022/06/29 08:07:28;;;;;;;8.82;2.95;;;;;;;24.65;48.15;100317.44;5030718;28;20243;-66
2022/06/29 08:09:56;;;;;;;6.18;2.97;;;;;;;24.67;48.43;100323.47;5022489;28;20217;-66
2022/06/29 08:12:24;;;;;;;5.78;3.08;;;;;;;24.73;48.94;100311.63;5030198;28;20212;-66
2022/06/29 08:14:51;;;;;;;10.95;3.47;;;;;;;24.80;48.14;100309.59;5031180;28;20674;-66
2022/06/29 08:17:19;;;;;;;6.30;2.95;;;;;;;24.82;47.69;100312.88;5030685;28;20765;-66
2022/06/29 08:19:49;;;;;;;4.25;3.08;;;;;;;24.86;48.47;100308.63;5028986;28;20215;-66
2022/06/29 08:22:16;;;;;;;5.93;2.80;;;;;;;24.87;48.70;100318.41;5022357;28;20224;-66
2022/06/29 08:24:44;;;;;;;8.68;3.30;;;;;;;24.95;47.43;100312.59;5031039;28;20295;-66
2022/06/29 08:27:12;;;;;;;6.85;3.67;;;;;;;24.95;46.34;100306.34;5031066;28;20704;-66
2022/06/29 08:30:00;;;;;;;6.95;4.93;;;;;;;24.94;46.66;100312.84;5030807;28;20204;-66
2022/06/29 08:32:28;;;;;;;8.98;3.53;;;;;;;24.94;47.29;100312.84;5029468;28;20264;-66
2022/06/29 08:35:01;;;;;;;8.90;3.70;;;;;;;24.97;46.83;100310.47;5030237;28;20577;-66
2022/06/29 08:37:36;;;;;;;7.45;3.55;;;;;;;24.94;46.88;100304.69;5022814;28;20232;-66
2022/06/29 08:40:05;;;;;;;5.70;3.50;;;;;;;24.88;47.51;100308.38;5030062;28;20217;-66
2022/06/29 08:42:35;;;;;;;4.50;3.28;;;;;;;24.85;46.85;100309.69;5030133;28;20315;-66
2022/06/29 08:45:05;;;;;;;6.10;3.60;;;;;;;24.85;46.66;100308.84;5027174;28;20849;-66
2022/06/29 08:47:32;;;;;;;4.28;2.85;;;;;;;24.92;47.26;100306.84;5030642;28;20321;-66
2022/06/29 08:50:03;;;;;;;3.78;2.67;;;;;;;25.08;46.86;100312.25;5030581;28;20296;-66
2022/06/29 08:52:35;;;;;;;5.65;2.60;;;;;;;25.22;46.63;100306.50;5019795;28;20300;-66
2022/06/29 08:55:04;;;;;;;6.35;2.97;;;;;;;25.28;47.34;100313.66;5030357;28;20220;-65
2022/06/29 08:57:32;;;;;;;10.35;3.20;;;;;;;25.28;46.43;100313.66;5030538;28;20197;-66
2022/06/29 09:00:00;;;;;;;7.80;3.55;;;;;;;25.25;46.69;100309.53;5030661;28;20213;-66
2022/06/29 09:02:30;;;;;;;6.38;3.10;;;;;;;25.07;46.78;100316.03;5030028;28;20205;-66
2022/06/29 09:04:58;;;;;;;5.93;2.95;;;;;;;25.00;47.21;100320.81;5030156;28;20209;-66
2022/06/29 09:07:28;;;;;;;12.00;3.22;;;;;;;25.04;47.48;100313.00;5030022;28;20232;-66
2022/06/29 09:10:00;;;;;;;4.93;3.03;;;;;;;25.10;47.31;100310.13;5032124;28;20304;-66
2022/06/29 09:12:28;;;;;;;7.90;3.35;;;;;;;25.27;47.37;100306.56;5029009;28;20216;-66
2022/06/29 09:14:56;;;;;;;5.30;2.90;;;;;;;25.44;47.35;100307.38;5029815;28;20201;-66
2022/06/29 09:17:24;;;;;;;5.65;2.92;;;;;;;25.48;47.94;100303.09;5030462;28;20213;-66
2022/06/29 09:19:54;;;;;;;7.55;3.17;;;;;;;25.49;47.99;100308.28;5017699;28;20212;-66
2022/06/29 09:22:52;;;;;;;4.90;3.08;;;;;;;25.58;47.61;100303.25;5024780;28;20232;-65
2022/06/29 09:25:24;;;;;;;8.65;3.03;;;;;;;25.77;47.06;100306.53;5030240;28;20219;-66
2022/06/29 09:27:55;;;;;;;7.38;2.83;;;;;;;25.91;47.58;100304.25;5027862;28;20228;-66
2022/06/29 09:30:26;;;;;;;4.20;2.78;;;;;;;26.08;47.00;100308.53;5030293;28;20235;-65
2022/06/29 09:33:00;;;;;;;5.60;3.17;;;;;;;26.31;45.30;100306.63;5029334;28;20223;-65
2022/06/29 09:35:29;;;;;;;9.52;3.20;;;;;;;26.48;45.44;100307.34;5025406;28;20292;-65
2022/06/29 09:38:18;;;;;;;7.15;3.30;;;;;;;26.56;43.93;100296.03;5025563;28;20213;-65
2022/06/29 09:40:58;;;;;;;6.72;3.08;;;;;;;26.53;43.31;100300.09;5030778;28;20259;-66
2022/06/29 09:43:27;;;;;;;5.55;2.47;;;;;;;26.57;43.38;100305.81;5035512;28;20211;-66
2022/06/29 09:45:55;;;;;;;6.57;2.70;;;;;;;26.63;43.12;100306.69;5039686;28;20209;-65
2022/06/29 09:48:25;;;;;;;5.47;2.60;;;;;;;26.43;43.58;100305.41;5030108;28;20225;-65
2022/06/29 09:50:55;;;;;;;6.45;2.83;;;;;;;26.46;43.46;100304.91;5031984;28;20291;-67
2022/06/29 09:53:28;;;;;;;4.88;3.00;;;;;;;26.56;44.55;100304.19;5033770;28;20299;-66
2022/06/29 09:56:03;;;;;;;7.28;3.20;;;;;;;26.58;45.22;100294.69;5029874;28;20241;-66
2022/06/29 09:58:37;;;;;;;6.22;2.55;;;;;;;26.57;44.52;100295.75;5024115;28;20205;-65
2022/06/29 10:03:55;;;;;;;4.60;2.72;;;;;;;26.64;44.44;100294.75;5029450;28;20209;-66
2022/06/29 10:06:23;;;;;;;5.07;2.33;;;;;;;26.63;43.71;100293.09;5030409;28;20295;-66
2022/06/29 10:08:53;;;;;;;4.47;3.38;;;;;;;26.60;44.76;100295.25;5029835;28;20274;-66
2022/06/29 10:14:27;;;;;;;6.05;2.97;;;;;;;26.56;44.79;100288.66;5029556;28;20648;-66
2022/06/29 10:17:04;;;;;;;7.28;3.17;;;;;;;26.60;44.97;100289.00;5029543;28;20210;-66
2022/06/29 10:19:45;;;;;;;6.57;3.30;;;;;;;26.65;44.13;100293.66;5029691;28;20262;-66
2022/06/29 10:22:13;;;;;;;11.40;3.40;;;;;;;26.64;44.63;100295.56;5018975;28;20201;-65
2022/06/29 10:25:04;;;;;;;6.50;3.30;;;;;;;26.73;43.70;100285.03;5029396;28;20292;-66
2022/06/29 10:27:32;;;;;;;4.63;2.92;;;;;;;26.64;44.28;100292.03;5024951;28;20291;-66
2022/06/29 10:30:20;;;;;;;5.70;2.80;;;;;;;26.71;45.13;100285.28;5029355;28;20315;-65
2022/06/29 10:32:48;;;;;;;6.10;2.70;;;;;;;26.85;44.03;100280.22;5029759;28;20321;-65
2022/06/29 10:35:16;;;;;;;9.10;3.00;;;;;;;26.99;44.31;100276.03;5028762;28;20682;-66
2022/06/29 10:37:52;;;;;;;4.18;2.70;;;;;;;27.17;43.93;100278.34;5022945;28;20209;-66
2022/06/29 10:40:24;;;;;;;5.07;2.75;;;;;;;27.38;42.99;100278.47;5027099;28;20208;-65
2022/06/29 10:43:10;;;;;;;5.15;2.40;;;;;;;27.38;43.11;100278.47;5032549;28;20215;-66
2022/06/29 10:45:41;;;;;;;3.83;2.22;;;;;;;27.50;42.93;100284.53;5033127;28;20705;-66
2022/06/29 10:48:16;;;;;;;5.43;2.53;;;;;;;27.60;41.79;100273.72;5032746;28;20197;-66
2022/06/29 10:50:46;;;;;;;5.82;2.30;;;;;;;27.59;43.32;100277.53;5028513;28;20224;-66
2022/06/29 10:53:16;;;;;;;8.13;3.00;;;;;;;27.61;43.56;100270.75;5027245;28;20205;-66
2022/06/29 10:55:48;;;;;;;6.35;2.30;;;;;;;27.63;43.83;100268.56;5032780;28;20221;-66
2022/06/29 10:58:16;;;;;;;4.65;2.70;;;;;;;27.69;41.87;100264.78;5031634;28;20589;-66
2022/06/29 11:00:45;;;;;;;4.75;2.55;;;;;;;27.92;41.84;100263.50;5034561;28;20208;-66
2022/06/29 11:03:16;;;;;;;4.88;2.40;;;;;;;28.15;41.48;100266.81;5031370;28;20239;-66
2022/06/29 11:14:06;;;;;;;6.57;2.45;;;;;;;28.43;41.75;100244.56;5031843;28;20296;-65
2022/06/29 11:16:36;;;;;;;2.55;2.20;;;;;;;28.48;41.41;100244.59;5032225;28;20212;-65
2022/06/29 11:19:05;;;;;;;3.55;2.65;;;;;;;28.69;40.85;100245.38;5032042;28;20205;-65
2022/06/29 11:21:33;;;;;;;5.00;2.70;;;;;;;28.75;41.60;100244.31;5032515;28;20255;-66
2022/06/29 11:24:04;;;;;;;7.05;2.95;;;;;;;28.71;41.16;100252.22;5032014;28;20219;-65
2022/06/29 11:26:35;;;;;;;6.93;2.97;;;;;;;28.52;40.86;100248.38;5032227;28;20292;-65
2022/06/29 11:29:04;;;;;;;4.75;2.95;;;;;;;28.55;40.78;100249.75;5032217;28;20232;-65
2022/06/29 11:31:31;;;;;;;4.78;3.22;;;;;;;28.56;40.55;100241.31;5031425;28;20221;-66
2022/06/29 11:34:00;;;;;;;4.45;3.08;;;;;;;28.43;41.31;100247.28;5031617;28;20594;-67
2022/06/29 11:36:30;;;;;;;3.92;2.75;;;;;;;28.45;40.82;100235.03;5021797;28;20248;-65
2022/06/29 11:39:06;;;;;;;4.80;2.90;;;;;;;28.45;41.80;100232.31;5031835;28;20201;-65
2022/06/29 11:44:27;;;;;;;7.68;4.18;;;;;;;28.23;41.61;100233.66;5031372;28;20266;-65
2022/06/29 11:46:56;;;;;;;8.05;3.47;;;;;;;28.16;41.25;100236.63;5031498;28;20747;-65
2022/06/29 11:49:38;;;;;;;5.13;2.90;;;;;;;28.23;40.54;100234.47;5032002;28;20228;-66
2022/06/29 11:52:08;;;;;;;5.60;3.10;;;;;;;28.16;42.03;100225.72;5027193;28;20213;-65
2022/06/29 11:54:38;;;;;;;7.28;4.22;;;;;;;28.12;43.51;100231.94;5030697;28;20306;-65
2022/06/29 11:57:10;;;;;;;5.75;3.53;;;;;;;28.13;42.97;100219.97;5028301;28;20797;-65
2022/06/29 11:59:40;;;;;;;5.10;2.88;;;;;;;28.05;42.13;100230.31;5031246;28;20301;-65
2022/06/29 12:02:10;;;;;;;8.15;3.50;;;;;;;28.04;42.34;100222.41;5032095;28;20209;-66